sensor_id;sensor_type;location;lat;lon;timestamp;pressure;altitude;pressure_sealevel;temperature;humidity
61761;BME280;47664;51.660;-0.100;2023-05-24T00:01:50;101927.10;;;13.75;45.91
61761;BME280;47664;51.660;-0.100;2023-05-24T00:04:17;101928.86;;;13.81;45.77
61761;BME280;47664;51.660;-0.100;2023-05-24T00:06:45;101925.79;;;13.88;45.65
61761;BME280;47664;51.660;-0.100;2023-05-24T00:09:12;101927.40;;;14.00;45.60
61761;BME280;47664;51.660;-0.100;2023-05-24T00:11:40;101925.69;;;13.91;45.72
61761;BME280;47664;51.660;-0.100;2023-05-24T00:14:08;101921.71;;;13.85;45.96
61761;BME280;47664;51.660;-0.100;2023-05-24T00:16:35;101921.09;;;13.94;45.92
61761;BME280;47664;51.660;-0.100;2023-05-24T00:19:03;101928.83;;;13.82;45.84
61761;BME280;47664;51.660;-0.100;2023-05-24T00:21:32;101929.43;;;13.93;46.24
61761;BME280;47664;51.660;-0.100;2023-05-24T00:23:59;101928.28;;;13.90;46.44
61761;BME280;47664;51.660;-0.100;2023-05-24T00:26:26;101923.56;;;13.97;46.59
61761;BME280;47664;51.660;-0.100;2023-05-24T00:28:54;101920.56;;;14.58;46.19
61761;BME280;47664;51.660;-0.100;2023-05-24T00:31:21;101914.61;;;14.30;45.94
61761;BME280;47664;51.660;-0.100;2023-05-24T00:33:49;101915.31;;;14.03;46.07
61761;BME280;47664;51.660;-0.100;2023-05-24T00:36:16;101919.64;;;14.21;46.11
61761;BME280;47664;51.660;-0.100;2023-05-24T00:38:44;101920.78;;;14.08;45.88
61761;BME280;47664;51.660;-0.100;2023-05-24T00:41:11;101920.16;;;13.87;46.39
61761;BME280;47664;51.660;-0.100;2023-05-24T00:43:39;101923.83;;;13.93;46.70
61761;BME280;47664;51.660;-0.100;2023-05-24T00:46:15;101921.40;;;13.61;46.94
61761;BME280;47664;51.660;-0.100;2023-05-24T00:48:44;101920.14;;;13.79;46.66
61761;BME280;47664;51.660;-0.100;2023-05-24T00:51:12;101915.08;;;13.62;46.45
61761;BME280;47664;51.660;-0.100;2023-05-24T00:53:43;101915.10;;;13.65;46.26
61761;BME280;47664;51.660;-0.100;2023-05-24T00:56:12;101913.14;;;13.72;46.40
61761;BME280;47664;51.660;-0.100;2023-05-24T00:58:41;101908.51;;;13.50;47.31
61761;BME280;47664;51.660;-0.100;2023-05-24T01:01:09;101905.46;;;12.78;47.65
61761;BME280;47664;51.660;-0.100;2023-05-24T01:03:36;101907.40;;;13.48;47.67
61761;BME280;47664;51.660;-0.100;2023-05-24T01:06:06;101906.14;;;12.73;47.80
61761;BME280;47664;51.660;-0.100;2023-05-24T01:08:44;101904.15;;;13.08;48.48
61761;BME280;47664;51.660;-0.100;2023-05-24T01:11:20;101901.26;;;11.83;49.57
61761;BME280;47664;51.660;-0.100;2023-05-24T01:14:00;101897.23;;;13.11;48.73
61761;BME280;47664;51.660;-0.100;2023-05-24T01:16:37;101888.69;;;12.80;48.42
61761;BME280;47664;51.660;-0.100;2023-05-24T01:19:28;101889.41;;;12.42;48.17
61761;BME280;47664;51.660;-0.100;2023-05-24T01:22:15;101883.77;;;13.43;48.22
61761;BME280;47664;51.660;-0.100;2023-05-24T01:24:57;101883.38;;;13.41;47.86
61761;BME280;47664;51.660;-0.100;2023-05-24T01:27:26;101887.04;;;12.78;47.98
61761;BME280;47664;51.660;-0.100;2023-05-24T01:29:55;101887.42;;;12.98;48.17
61761;BME280;47664;51.660;-0.100;2023-05-24T01:32:25;101889.38;;;13.39;47.92
61761;BME280;47664;51.660;-0.100;2023-05-24T01:34:53;101892.00;;;13.31;48.06
61761;BME280;47664;51.660;-0.100;2023-05-24T01:37:20;101896.39;;;12.70;48.32
61761;BME280;47664;51.660;-0.100;2023-05-24T01:39:48;101892.84;;;13.15;48.48
61761;BME280;47664;51.660;-0.100;2023-05-24T01:42:23;101890.42;;;13.33;48.11
61761;BME280;47664;51.660;-0.100;2023-05-24T01:44:59;101889.61;;;13.53;48.08
61761;BME280;47664;51.660;-0.100;2023-05-24T01:47:41;101887.92;;;13.02;48.18
61761;BME280;47664;51.660;-0.100;2023-05-24T01:50:19;101882.70;;;13.38;48.01
61761;BME280;47664;51.660;-0.100;2023-05-24T01:52:50;101880.71;;;13.32;47.97
61761;BME280;47664;51.660;-0.100;2023-05-24T01:55:19;101880.43;;;12.75;48.01
61761;BME280;47664;51.660;-0.100;2023-05-24T01:57:50;101877.31;;;12.87;48.16
61761;BME280;47664;51.660;-0.100;2023-05-24T02:00:20;101871.32;;;12.88;48.21
61761;BME280;47664;51.660;-0.100;2023-05-24T02:02:49;101875.51;;;12.98;48.15
61761;BME280;47664;51.660;-0.100;2023-05-24T02:05:17;101875.96;;;12.53;48.24
61761;BME280;47664;51.660;-0.100;2023-05-24T02:07:45;101874.71;;;13.04;48.16
61761;BME280;47664;51.660;-0.100;2023-05-24T02:10:12;101873.03;;;12.73;48.28
61761;BME280;47664;51.660;-0.100;2023-05-24T02:12:40;101865.82;;;13.00;48.11
61761;BME280;47664;51.660;-0.100;2023-05-24T02:15:09;101869.25;;;12.50;48.11
61761;BME280;47664;51.660;-0.100;2023-05-24T02:17:37;101867.70;;;12.84;47.85
61761;BME280;47664;51.660;-0.100;2023-05-24T02:20:06;101867.57;;;12.89;47.73
61761;BME280;47664;51.660;-0.100;2023-05-24T02:22:33;101871.42;;;12.86;48.19
61761;BME280;47664;51.660;-0.100;2023-05-24T02:25:02;101872.21;;;12.65;48.10
61761;BME280;47664;51.660;-0.100;2023-05-24T02:27:29;101874.48;;;12.65;47.98
61761;BME280;47664;51.660;-0.100;2023-05-24T02:29:58;101877.28;;;12.58;47.99
61761;BME280;47664;51.660;-0.100;2023-05-24T02:32:25;101879.55;;;12.71;48.08
61761;BME280;47664;51.660;-0.100;2023-05-24T02:34:53;101880.18;;;12.81;48.39
61761;BME280;47664;51.660;-0.100;2023-05-24T02:37:20;101876.31;;;12.35;48.18
61761;BME280;47664;51.660;-0.100;2023-05-24T02:39:48;101876.24;;;12.11;47.69
61761;BME280;47664;51.660;-0.100;2023-05-24T02:42:16;101881.17;;;11.31;47.43
61761;BME280;47664;51.660;-0.100;2023-05-24T02:44:43;101878.59;;;11.54;46.21
61761;BME280;47664;51.660;-0.100;2023-05-24T02:47:11;101877.58;;;12.30;45.73
61761;BME280;47664;51.660;-0.100;2023-05-24T02:49:39;101877.01;;;12.07;46.05
61761;BME280;47664;51.660;-0.100;2023-05-24T02:52:06;101873.58;;;12.13;45.81
61761;BME280;47664;51.660;-0.100;2023-05-24T02:54:33;101877.69;;;11.84;45.62
61761;BME280;47664;51.660;-0.100;2023-05-24T02:57:02;101876.78;;;12.81;45.23
61761;BME280;47664;51.660;-0.100;2023-05-24T02:59:30;101877.92;;;12.07;46.05
61761;BME280;47664;51.660;-0.100;2023-05-24T03:01:58;101874.44;;;12.38;46.27
61761;BME280;47664;51.660;-0.100;2023-05-24T03:04:26;101869.59;;;11.72;46.47
61761;BME280;47664;51.660;-0.100;2023-05-24T03:06:54;101865.59;;;12.44;46.52
61761;BME280;47664;51.660;-0.100;2023-05-24T03:09:22;101861.76;;;11.86;46.81
61761;BME280;47664;51.660;-0.100;2023-05-24T03:11:50;101864.07;;;11.66;46.71
61761;BME280;47664;51.660;-0.100;2023-05-24T03:14:18;101864.26;;;12.91;47.44
61761;BME280;47664;51.660;-0.100;2023-05-24T03:16:45;101863.88;;;11.41;47.68
61761;BME280;47664;51.660;-0.100;2023-05-24T03:19:14;101865.28;;;12.08;47.31
61761;BME280;47664;51.660;-0.100;2023-05-24T03:21:42;101863.88;;;12.84;48.22
61761;BME280;47664;51.660;-0.100;2023-05-24T03:24:09;101864.98;;;12.50;48.36
61761;BME280;47664;51.660;-0.100;2023-05-24T03:26:37;101869.36;;;12.77;48.74
61761;BME280;47664;51.660;-0.100;2023-05-24T03:29:05;101867.17;;;12.23;49.02
61761;BME280;47664;51.660;-0.100;2023-05-24T03:31:33;101866.20;;;12.44;49.45
61761;BME280;47664;51.660;-0.100;2023-05-24T03:34:00;101868.38;;;12.15;49.50
61761;BME280;47664;51.660;-0.100;2023-05-24T03:36:28;101864.90;;;12.32;49.67
61761;BME280;47664;51.660;-0.100;2023-05-24T03:38:55;101865.01;;;12.49;49.62
61761;BME280;47664;51.660;-0.100;2023-05-24T03:41:23;101867.46;;;12.25;49.75
61761;BME280;47664;51.660;-0.100;2023-05-24T03:43:50;101866.49;;;12.19;49.98
61761;BME280;47664;51.660;-0.100;2023-05-24T03:46:18;101866.05;;;12.17;50.05
61761;BME280;47664;51.660;-0.100;2023-05-24T03:48:45;101866.11;;;12.25;49.98
61761;BME280;47664;51.660;-0.100;2023-05-24T03:51:13;101859.66;;;11.41;49.89
61761;BME280;47664;51.660;-0.100;2023-05-24T03:53:41;101860.79;;;12.38;49.55
61761;BME280;47664;51.660;-0.100;2023-05-24T03:56:09;101858.65;;;12.21;49.96
61761;BME280;47664;51.660;-0.100;2023-05-24T03:58:37;101863.80;;;12.16;49.99
61761;BME280;47664;51.660;-0.100;2023-05-24T04:01:05;101861.75;;;11.49;50.42
61761;BME280;47664;51.660;-0.100;2023-05-24T04:03:32;101861.04;;;11.46;50.37
61761;BME280;47664;51.660;-0.100;2023-05-24T04:06:00;101864.94;;;11.82;50.65
61761;BME280;47664;51.660;-0.100;2023-05-24T04:08:28;101861.45;;;11.82;50.64
61761;BME280;47664;51.660;-0.100;2023-05-24T04:10:55;101860.48;;;12.07;50.66
61761;BME280;47664;51.660;-0.100;2023-05-24T04:13:23;101857.75;;;11.98;50.39
61761;BME280;47664;51.660;-0.100;2023-05-24T04:21:36;101860.78;;;11.52;53.17
61761;BME280;47664;51.660;-0.100;2023-05-24T04:24:04;101865.19;;;10.08;52.75
61761;BME280;47664;51.660;-0.100;2023-05-24T04:26:33;101855.26;;;11.56;51.97
61761;BME280;47664;51.660;-0.100;2023-05-24T04:29:01;101850.96;;;11.63;52.07
61761;BME280;47664;51.660;-0.100;2023-05-24T04:31:29;101850.70;;;11.59;51.82
61761;BME280;47664;51.660;-0.100;2023-05-24T04:33:57;101851.25;;;11.80;51.72
61761;BME280;47664;51.660;-0.100;2023-05-24T04:36:24;101858.22;;;11.58;52.17
61761;BME280;47664;51.660;-0.100;2023-05-24T04:38:52;101865.43;;;10.96;52.86
61761;BME280;47664;51.660;-0.100;2023-05-24T04:41:20;101863.51;;;11.03;53.11
61761;BME280;47664;51.660;-0.100;2023-05-24T04:43:47;101860.17;;;11.49;53.07
61761;BME280;47664;51.660;-0.100;2023-05-24T04:46:15;101858.71;;;11.12;54.14
61761;BME280;47664;51.660;-0.100;2023-05-24T04:48:43;101851.15;;;10.62;53.71
61761;BME280;47664;51.660;-0.100;2023-05-24T04:51:11;101855.01;;;10.79;53.70
61761;BME280;47664;51.660;-0.100;2023-05-24T04:53:39;101854.97;;;10.92;53.84
61761;BME280;47664;51.660;-0.100;2023-05-24T04:56:06;101852.70;;;11.41;53.21
61761;BME280;47664;51.660;-0.100;2023-05-24T04:58:35;101852.83;;;11.20;53.32
61761;BME280;47664;51.660;-0.100;2023-05-24T05:01:02;101844.52;;;11.31;52.81
61761;BME280;47664;51.660;-0.100;2023-05-24T05:03:31;101839.21;;;11.40;53.08
61761;BME280;47664;51.660;-0.100;2023-05-24T05:05:59;101833.68;;;11.62;53.20
61761;BME280;47664;51.660;-0.100;2023-05-24T05:08:27;101829.56;;;11.32;53.30
61761;BME280;47664;51.660;-0.100;2023-05-24T05:10:54;101838.87;;;10.92;53.74
61761;BME280;47664;51.660;-0.100;2023-05-24T05:13:22;101841.97;;;10.91;53.69
61761;BME280;47664;51.660;-0.100;2023-05-24T05:15:50;101845.49;;;11.69;53.46
61761;BME280;47664;51.660;-0.100;2023-05-24T05:18:17;101853.53;;;11.72;53.34
61761;BME280;47664;51.660;-0.100;2023-05-24T05:20:45;101854.45;;;10.93;53.53
61761;BME280;47664;51.660;-0.100;2023-05-24T05:23:12;101857.81;;;11.14;54.13
61761;BME280;47664;51.660;-0.100;2023-05-24T05:25:39;101854.57;;;11.13;54.30
61761;BME280;47664;51.660;-0.100;2023-05-24T05:28:07;101851.82;;;10.94;54.71
61761;BME280;47664;51.660;-0.100;2023-05-24T05:30:34;101851.71;;;10.89;54.83
61761;BME280;47664;51.660;-0.100;2023-05-24T05:33:03;101855.97;;;11.24;54.56
61761;BME280;47664;51.660;-0.100;2023-05-24T05:35:31;101859.38;;;11.14;54.95
61761;BME280;47664;51.660;-0.100;2023-05-24T05:37:59;101857.06;;;11.49;53.99
61761;BME280;47664;51.660;-0.100;2023-05-24T05:40:27;101856.84;;;11.35;54.17
61761;BME280;47664;51.660;-0.100;2023-05-24T05:42:55;101860.75;;;10.83;54.61
61761;BME280;47664;51.660;-0.100;2023-05-24T05:45:23;101864.88;;;11.67;54.08
61761;BME280;47664;51.660;-0.100;2023-05-24T05:47:50;101868.80;;;11.71;54.15
61761;BME280;47664;51.660;-0.100;2023-05-24T05:50:18;101868.88;;;11.85;53.70
61761;BME280;47664;51.660;-0.100;2023-05-24T06:00:27;101877.68;;;11.83;55.05
61761;BME280;47664;51.660;-0.100;2023-05-24T06:02:54;101875.25;;;10.87;53.43
61761;BME280;47664;51.660;-0.100;2023-05-24T06:05:23;101872.91;;;12.52;51.60
61761;BME280;47664;51.660;-0.100;2023-05-24T06:07:51;101877.52;;;11.92;51.62
61761;BME280;47664;51.660;-0.100;2023-05-24T06:10:19;101879.32;;;12.99;51.79
61761;BME280;47664;51.660;-0.100;2023-05-24T06:12:46;101881.49;;;12.79;52.08
61761;BME280;47664;51.660;-0.100;2023-05-24T06:15:14;101875.34;;;12.77;52.10
61761;BME280;47664;51.660;-0.100;2023-05-24T06:17:42;101876.22;;;11.82;51.73
61761;BME280;47664;51.660;-0.100;2023-05-24T06:20:11;101882.09;;;12.93;51.43
61761;BME280;47664;51.660;-0.100;2023-05-24T06:22:39;101879.61;;;12.50;52.20
61761;BME280;47664;51.660;-0.100;2023-05-24T06:25:08;101880.51;;;13.36;51.40
61761;BME280;47664;51.660;-0.100;2023-05-24T06:27:36;101884.81;;;12.25;51.09
61761;BME280;47664;51.660;-0.100;2023-05-24T06:30:05;101891.10;;;12.75;51.74
61761;BME280;47664;51.660;-0.100;2023-05-24T06:32:33;101889.59;;;12.82;51.20
61761;BME280;47664;51.660;-0.100;2023-05-24T06:35:00;101896.85;;;13.71;50.33
61761;BME280;47664;51.660;-0.100;2023-05-24T06:37:28;101902.35;;;13.31;50.08
61761;BME280;47664;51.660;-0.100;2023-05-24T06:39:55;101903.64;;;13.76;49.41
61761;BME280;47664;51.660;-0.100;2023-05-24T06:42:23;101910.96;;;13.88;49.99
61761;BME280;47664;51.660;-0.100;2023-05-24T06:44:51;101905.96;;;13.49;50.56
61761;BME280;47664;51.660;-0.100;2023-05-24T06:47:19;101897.61;;;14.07;50.16
61761;BME280;47664;51.660;-0.100;2023-05-24T06:49:47;101898.85;;;14.28;49.77
61761;BME280;47664;51.660;-0.100;2023-05-24T06:52:14;101892.32;;;14.34;49.62
61761;BME280;47664;51.660;-0.100;2023-05-24T06:54:41;101890.28;;;14.64;49.24
61761;BME280;47664;51.660;-0.100;2023-05-24T06:57:09;101889.49;;;14.03;49.85
61761;BME280;47664;51.660;-0.100;2023-05-24T06:59:37;101889.76;;;13.64;49.06
61761;BME280;47664;51.660;-0.100;2023-05-24T07:02:04;101891.20;;;14.49;48.39
61761;BME280;47664;51.660;-0.100;2023-05-24T07:04:36;101892.42;;;15.03;48.32
61761;BME280;47664;51.660;-0.100;2023-05-24T07:07:03;101898.16;;;15.40;47.32
61761;BME280;47664;51.660;-0.100;2023-05-24T07:09:31;101898.33;;;14.79;47.20
61761;BME280;47664;51.660;-0.100;2023-05-24T07:11:59;101897.15;;;15.59;46.62
61761;BME280;47664;51.660;-0.100;2023-05-24T07:14:27;101897.17;;;14.82;47.84
61761;BME280;47664;51.660;-0.100;2023-05-24T07:16:54;101895.47;;;14.44;48.59
61761;BME280;47664;51.660;-0.100;2023-05-24T07:19:22;101900.51;;;14.62;48.67
61761;BME280;47664;51.660;-0.100;2023-05-24T07:21:50;101894.50;;;14.23;48.92
61761;BME280;47664;51.660;-0.100;2023-05-24T07:24:17;101895.63;;;14.61;48.45
61761;BME280;47664;51.660;-0.100;2023-05-24T07:26:45;101902.01;;;15.15;47.61
61761;BME280;47664;51.660;-0.100;2023-05-24T07:29:13;101905.13;;;15.06;47.91
61761;BME280;47664;51.660;-0.100;2023-05-24T07:31:40;101908.49;;;14.72;47.55
61761;BME280;47664;51.660;-0.100;2023-05-24T07:34:08;101913.18;;;15.44;47.35
61761;BME280;47664;51.660;-0.100;2023-05-24T07:36:36;101909.87;;;15.60;47.23
61761;BME280;47664;51.660;-0.100;2023-05-24T07:39:04;101906.20;;;15.72;47.15
61761;BME280;47664;51.660;-0.100;2023-05-24T07:41:32;101908.00;;;14.79;47.70
61761;BME280;47664;51.660;-0.100;2023-05-24T07:44:00;101907.24;;;15.43;47.43
61761;BME280;47664;51.660;-0.100;2023-05-24T07:46:27;101909.65;;;14.72;48.79
61761;BME280;47664;51.660;-0.100;2023-05-24T07:48:55;101913.37;;;15.31;47.75
61761;BME280;47664;51.660;-0.100;2023-05-24T07:51:23;101914.18;;;15.71;47.43
61761;BME280;47664;51.660;-0.100;2023-05-24T07:53:51;101912.49;;;15.19;48.38
61761;BME280;47664;51.660;-0.100;2023-05-24T07:56:19;101913.09;;;14.85;49.27
61761;BME280;47664;51.660;-0.100;2023-05-24T07:58:47;101910.89;;;15.06;48.33
61761;BME280;47664;51.660;-0.100;2023-05-24T08:01:14;101908.57;;;15.25;48.51
61761;BME280;47664;51.660;-0.100;2023-05-24T08:03:42;101909.20;;;14.24;49.31
61761;BME280;47664;51.660;-0.100;2023-05-24T08:06:11;101904.09;;;15.19;48.33
61761;BME280;47664;51.660;-0.100;2023-05-24T08:08:38;101904.60;;;15.37;48.25
61761;BME280;47664;51.660;-0.100;2023-05-24T08:11:05;101901.12;;;15.78;47.64
61761;BME280;47664;51.660;-0.100;2023-05-24T08:13:33;101901.90;;;15.44;46.76
61761;BME280;47664;51.660;-0.100;2023-05-24T08:16:01;101903.86;;;15.79;46.70
61761;BME280;47664;51.660;-0.100;2023-05-24T08:18:29;101904.51;;;15.83;46.05
61761;BME280;47664;51.660;-0.100;2023-05-24T08:20:57;101905.63;;;15.58;46.83
61761;BME280;47664;51.660;-0.100;2023-05-24T08:23:24;101907.81;;;15.47;46.75
61761;BME280;47664;51.660;-0.100;2023-05-24T08:25:52;101899.10;;;16.15;45.56
61761;BME280;47664;51.660;-0.100;2023-05-24T08:28:20;101902.05;;;15.98;46.04
61761;BME280;47664;51.660;-0.100;2023-05-24T08:30:47;101894.12;;;16.35;45.67
61761;BME280;47664;51.660;-0.100;2023-05-24T08:33:20;101899.13;;;16.91;44.80
61761;BME280;47664;51.660;-0.100;2023-05-24T08:35:48;101894.02;;;16.50;44.03
61761;BME280;47664;51.660;-0.100;2023-05-24T08:38:16;101888.29;;;16.64;44.20
61761;BME280;47664;51.660;-0.100;2023-05-24T08:40:44;101884.56;;;17.16;44.10
61761;BME280;47664;51.660;-0.100;2023-05-24T08:43:12;101880.30;;;17.01;44.11
61761;BME280;47664;51.660;-0.100;2023-05-24T08:45:42;101883.44;;;16.52;43.92
61761;BME280;47664;51.660;-0.100;2023-05-24T08:48:10;101883.65;;;17.38;42.96
61761;BME280;47664;51.660;-0.100;2023-05-24T08:50:39;101877.46;;;17.78;41.80
61761;BME280;47664;51.660;-0.100;2023-05-24T08:53:09;101876.50;;;18.03;40.74
61761;BME280;47664;51.660;-0.100;2023-05-24T08:55:37;101872.33;;;17.95;40.72
61761;BME280;47664;51.660;-0.100;2023-05-24T08:58:05;101864.49;;;17.71;41.82
61761;BME280;47664;51.660;-0.100;2023-05-24T09:00:34;101866.26;;;17.93;41.48
61761;BME280;47664;51.660;-0.100;2023-05-24T09:03:04;101862.03;;;18.26;40.14
61761;BME280;47664;51.660;-0.100;2023-05-24T09:05:33;101852.99;;;17.29;40.42
61761;BME280;47664;51.660;-0.100;2023-05-24T09:08:01;101857.51;;;17.75;40.97
61761;BME280;47664;51.660;-0.100;2023-05-24T09:10:32;101860.97;;;18.02;42.08
61761;BME280;47664;51.660;-0.100;2023-05-24T09:13:02;101860.89;;;18.27;41.88
61761;BME280;47664;51.660;-0.100;2023-05-24T09:15:29;101860.93;;;17.88;41.22
61761;BME280;47664;51.660;-0.100;2023-05-24T09:17:57;101862.54;;;18.15;41.92
61761;BME280;47664;51.660;-0.100;2023-05-24T09:20:24;101867.14;;;17.65;41.19
61761;BME280;47664;51.660;-0.100;2023-05-24T09:22:52;101868.14;;;18.22;41.22
61761;BME280;47664;51.660;-0.100;2023-05-24T09:25:20;101862.04;;;18.63;40.30
61761;BME280;47664;51.660;-0.100;2023-05-24T09:27:52;101863.04;;;18.94;40.20
61761;BME280;47664;51.660;-0.100;2023-05-24T09:30:19;101862.48;;;18.72;39.90
61761;BME280;47664;51.660;-0.100;2023-05-24T09:32:55;101865.60;;;18.87;40.57
61761;BME280;47664;51.660;-0.100;2023-05-24T09:35:24;101859.99;;;18.54;40.63
61761;BME280;47664;51.660;-0.100;2023-05-24T09:37:54;101861.29;;;18.96;40.07
61761;BME280;47664;51.660;-0.100;2023-05-24T09:40:23;101861.68;;;19.22;39.92
61761;BME280;47664;51.660;-0.100;2023-05-24T09:43:03;101860.39;;;18.17;41.43
61761;BME280;47664;51.660;-0.100;2023-05-24T09:45:32;101863.96;;;16.96;42.94
61761;BME280;47664;51.660;-0.100;2023-05-24T09:48:08;101861.53;;;18.43;40.87
61761;BME280;47664;51.660;-0.100;2023-05-24T09:50:36;101861.41;;;18.29;41.54
61761;BME280;47664;51.660;-0.100;2023-05-24T09:53:04;101860.27;;;18.14;42.03
61761;BME280;47664;51.660;-0.100;2023-05-24T09:55:35;101867.26;;;18.28;40.51
61761;BME280;47664;51.660;-0.100;2023-05-24T09:58:05;101867.67;;;18.59;40.16
61761;BME280;47664;51.660;-0.100;2023-05-24T10:00:34;101869.96;;;18.85;39.47
61761;BME280;47664;51.660;-0.100;2023-05-24T10:03:04;101867.91;;;19.29;38.63
61761;BME280;47664;51.660;-0.100;2023-05-24T10:05:32;101860.21;;;18.53;39.29
61761;BME280;47664;51.660;-0.100;2023-05-24T10:08:00;101862.57;;;19.26;38.77
61761;BME280;47664;51.660;-0.100;2023-05-24T10:10:30;101854.39;;;20.18;36.31
61761;BME280;47664;51.660;-0.100;2023-05-24T10:12:59;101847.94;;;20.21;35.36
61761;BME280;47664;51.660;-0.100;2023-05-24T10:15:29;101847.36;;;20.22;34.77
61761;BME280;47664;51.660;-0.100;2023-05-24T10:17:57;101846.07;;;21.00;33.33
61761;BME280;47664;51.660;-0.100;2023-05-24T10:20:24;101847.76;;;23.08;32.96
61761;BME280;47664;51.660;-0.100;2023-05-24T10:22:57;101848.18;;;21.81;33.99
61761;BME280;47664;51.660;-0.100;2023-05-24T10:25:27;101847.85;;;21.25;35.35
61761;BME280;47664;51.660;-0.100;2023-05-24T10:27:57;101848.63;;;21.07;35.48
61761;BME280;47664;51.660;-0.100;2023-05-24T10:30:30;101844.36;;;20.67;35.66
61761;BME280;47664;51.660;-0.100;2023-05-24T10:33:02;101840.65;;;21.35;35.79
61761;BME280;47664;51.660;-0.100;2023-05-24T10:35:32;101836.39;;;22.15;34.25
61761;BME280;47664;51.660;-0.100;2023-05-24T10:38:05;101830.38;;;22.66;33.33
61761;BME280;47664;51.660;-0.100;2023-05-24T10:40:33;101829.44;;;22.11;34.15
61761;BME280;47664;51.660;-0.100;2023-05-24T10:43:04;101832.35;;;21.71;35.00
61761;BME280;47664;51.660;-0.100;2023-05-24T10:45:33;101831.26;;;21.71;34.30
61761;BME280;47664;51.660;-0.100;2023-05-24T10:48:37;101832.57;;;21.41;35.27
61761;BME280;47664;51.660;-0.100;2023-05-24T10:51:44;101826.76;;;21.35;35.52
61761;BME280;47664;51.660;-0.100;2023-05-24T10:54:13;101832.38;;;21.24;35.05
61761;BME280;47664;51.660;-0.100;2023-05-24T10:56:44;101832.87;;;20.70;36.25
61761;BME280;47664;51.660;-0.100;2023-05-24T10:59:44;101831.21;;;20.97;36.01
61761;BME280;47664;51.660;-0.100;2023-05-24T11:02:12;101833.28;;;20.74;37.20
61761;BME280;47664;51.660;-0.100;2023-05-24T11:04:41;101833.51;;;20.66;36.53
61761;BME280;47664;51.660;-0.100;2023-05-24T11:07:11;101837.09;;;19.68;37.43
61761;BME280;47664;51.660;-0.100;2023-05-24T11:09:39;101833.87;;;19.18;36.30
61761;BME280;47664;51.660;-0.100;2023-05-24T11:12:08;101836.33;;;18.86;38.56
61761;BME280;47664;51.660;-0.100;2023-05-24T11:14:37;101840.77;;;19.12;38.94
61761;BME280;47664;51.660;-0.100;2023-05-24T11:17:05;101840.68;;;19.37;39.32
61761;BME280;47664;51.660;-0.100;2023-05-24T11:19:35;101837.91;;;18.57;38.77
61761;BME280;47664;51.660;-0.100;2023-05-24T11:22:06;101838.83;;;19.63;37.70
61761;BME280;47664;51.660;-0.100;2023-05-24T11:24:34;101829.12;;;19.99;37.55
61761;BME280;47664;51.660;-0.100;2023-05-24T11:27:03;101825.36;;;20.30;37.17
61761;BME280;47664;51.660;-0.100;2023-05-24T11:29:31;101825.74;;;19.40;38.12
61761;BME280;47664;51.660;-0.100;2023-05-24T11:31:59;101830.38;;;19.47;39.15
61761;BME280;47664;51.660;-0.100;2023-05-24T11:34:27;101827.62;;;19.07;38.18
61761;BME280;47664;51.660;-0.100;2023-05-24T11:36:55;101824.36;;;19.74;37.56
61761;BME280;47664;51.660;-0.100;2023-05-24T11:39:23;101822.20;;;20.32;37.14
61761;BME280;47664;51.660;-0.100;2023-05-24T11:41:53;101824.37;;;20.17;37.39
61761;BME280;47664;51.660;-0.100;2023-05-24T11:44:21;101828.55;;;20.93;36.51
61761;BME280;47664;51.660;-0.100;2023-05-24T11:46:48;101823.70;;;19.99;37.78
61761;BME280;47664;51.660;-0.100;2023-05-24T11:49:16;101824.00;;;20.46;37.09
61761;BME280;47664;51.660;-0.100;2023-05-24T11:51:44;101826.82;;;20.46;37.52
61761;BME280;47664;51.660;-0.100;2023-05-24T11:54:11;101826.52;;;20.57;36.64
61761;BME280;47664;51.660;-0.100;2023-05-24T11:56:39;101828.39;;;20.10;38.51
61761;BME280;47664;51.660;-0.100;2023-05-24T11:59:15;101827.93;;;20.01;37.94
61761;BME280;47664;51.660;-0.100;2023-05-24T12:01:43;101829.35;;;19.99;36.96
61761;BME280;47664;51.660;-0.100;2023-05-24T12:04:11;101830.72;;;19.91;37.40
61761;BME280;47664;51.660;-0.100;2023-05-24T12:06:40;101834.66;;;20.52;36.99
61761;BME280;47664;51.660;-0.100;2023-05-24T12:09:10;101829.26;;;21.11;36.53
61761;BME280;47664;51.660;-0.100;2023-05-24T12:11:39;101831.39;;;19.25;39.38
61761;BME280;47664;51.660;-0.100;2023-05-24T12:14:10;101837.25;;;20.58;37.72
61761;BME280;47664;51.660;-0.100;2023-05-24T12:16:38;101831.90;;;20.02;39.03
61761;BME280;47664;51.660;-0.100;2023-05-24T12:19:05;101836.62;;;20.58;37.45
61761;BME280;47664;51.660;-0.100;2023-05-24T12:21:33;101835.59;;;19.89;36.71
61761;BME280;47664;51.660;-0.100;2023-05-24T12:24:09;101831.97;;;20.53;37.16
61761;BME280;47664;51.660;-0.100;2023-05-24T12:26:40;101827.70;;;20.56;38.13
61761;BME280;47664;51.660;-0.100;2023-05-24T12:29:09;101821.71;;;20.37;37.65
61761;BME280;47664;51.660;-0.100;2023-05-24T12:31:38;101820.46;;;19.76;37.78
61761;BME280;47664;51.660;-0.100;2023-05-24T14:04:37;101798.75;;;20.94;35.02
61761;BME280;47664;51.660;-0.100;2023-05-24T14:07:04;101797.28;;;19.50;34.72
61761;BME280;47664;51.660;-0.100;2023-05-24T14:09:31;101792.80;;;20.06;34.28
61761;BME280;47664;51.660;-0.100;2023-05-24T14:11:58;101788.25;;;19.85;33.91
61761;BME280;47664;51.660;-0.100;2023-05-24T14:14:25;101786.13;;;20.31;32.83
61761;BME280;47664;51.660;-0.100;2023-05-24T14:16:52;101784.75;;;20.62;32.36
61761;BME280;47664;51.660;-0.100;2023-05-24T14:19:18;101782.30;;;20.51;32.49
61761;BME280;47664;51.660;-0.100;2023-05-24T14:21:45;101779.87;;;20.44;33.15
61761;BME280;47664;51.660;-0.100;2023-05-24T14:24:12;101787.66;;;20.69;33.23
61761;BME280;47664;51.660;-0.100;2023-05-24T14:26:38;101786.62;;;19.89;33.75
61761;BME280;47664;51.660;-0.100;2023-05-24T14:29:04;101787.94;;;20.57;34.02
61761;BME280;47664;51.660;-0.100;2023-05-24T14:31:31;101790.96;;;19.97;33.61
61761;BME280;47664;51.660;-0.100;2023-05-24T14:33:59;101790.65;;;19.98;33.21